createdAt,value
2018-11-20T00:01:19.711Z,2.73
2018-11-20T00:04:21.701Z,2.76
2018-11-20T00:07:20.945Z,2.75
2018-11-20T00:10:09.668Z,2.78
2018-11-20T00:13:14.716Z,2.76
2018-11-20T00:16:07.368Z,2.83
2018-11-20T00:18:57.244Z,2.82
2018-11-20T00:22:02.403Z,2.78
2018-11-20T00:25:07.269Z,2.81
2018-11-20T00:27:52.365Z,2.89
2018-11-20T00:30:51.319Z,2.85
2018-11-20T00:33:50.044Z,2.85
2018-11-20T00:36:52.114Z,2.87
2018-11-20T00:39:39.669Z,2.87
2018-11-20T00:42:26.521Z,2.88
2018-11-20T00:45:28.249Z,2.85
2018-11-20T00:48:18.193Z,2.85
2018-11-20T00:51:07.105Z,2.85
2018-11-20T00:53:49.819Z,2.89
2018-11-20T00:56:54.659Z,2.87
2018-11-20T00:59:47.639Z,2.87
2018-11-20T01:02:40.693Z,2.87
2018-11-20T01:05:39.606Z,2.85
2018-11-20T01:08:26.169Z,2.82
2018-11-20T01:11:24.043Z,2.85
2018-11-20T01:14:06.764Z,2.85
2018-11-20T01:16:59.923Z,2.88
2018-11-20T01:19:58.805Z,2.91
2018-11-20T01:23:03.915Z,2.92
2018-11-20T01:25:52.216Z,2.84
2018-11-20T01:28:41.264Z,2.84
2018-11-20T01:31:32.139Z,2.87
2018-11-20T01:34:22.135Z,2.82
2018-11-20T01:37:14.965Z,2.86
2018-11-20T01:40:14.168Z,2.83
2018-11-20T01:43:01.864Z,2.87
2018-11-20T01:45:57.518Z,2.84
2018-11-20T01:48:56.643Z,2.84
2018-11-20T01:51:49.454Z,2.85
2018-11-20T01:54:52.245Z,2.84
2018-11-20T01:57:47.851Z,2.88
2018-11-20T02:00:37.714Z,2.88
2018-11-20T02:03:26.125Z,2.86
2018-11-20T02:06:25.929Z,2.84
2018-11-20T02:09:22.780Z,2.85
2018-11-20T02:12:25.015Z,2.83
2018-11-20T02:15:16.095Z,2.88
2018-11-20T02:18:19.010Z,2.90
2018-11-20T02:21:17.194Z,2.88
2018-11-20T02:24:03.981Z,2.90
2018-11-20T02:27:06.003Z,2.91
2018-11-20T02:30:07.969Z,2.92
2018-11-20T02:33:04.348Z,2.93
2018-11-20T02:35:52.715Z,2.97
2018-11-20T02:38:48.839Z,2.97
2018-11-20T02:41:44.805Z,2.99
2018-11-20T02:44:40.679Z,3.00
2018-11-20T02:47:23.968Z,2.97
2018-11-20T02:50:20.899Z,2.94
2018-11-20T02:53:11.233Z,2.96
2018-11-20T02:55:53.732Z,2.93
2018-11-20T02:58:40.184Z,2.92
2018-11-20T03:01:32.719Z,2.92
2018-11-20T03:04:11.955Z,2.93
2018-11-20T03:07:07.703Z,2.94
2018-11-20T03:10:03.706Z,2.95
2018-11-20T03:12:56.324Z,2.96
2018-11-20T03:15:49.113Z,2.98
2018-11-20T03:18:43.428Z,3.01
2018-11-20T03:21:24.031Z,3.01
2018-11-20T03:24:13.869Z,3.03
2018-11-20T03:27:06.770Z,3.03
2018-11-20T03:31:12.277Z,3.01
2018-11-20T03:34:14.308Z,3.06
2018-11-20T03:37:02.552Z,3.02
2018-11-20T03:39:51.378Z,3.02
2018-11-20T03:42:39.929Z,3.02
2018-11-20T03:45:26.406Z,3.05
2018-11-20T03:48:31.167Z,3.04
2018-11-20T03:51:20.312Z,3.04
2018-11-20T03:54:05.638Z,3.03
2018-11-20T03:56:54.262Z,3.07
2018-11-20T03:59:42.920Z,3.08
2018-11-20T04:02:41.709Z,3.05
2018-11-20T04:05:22.137Z,3.02
2018-11-20T04:08:10.883Z,3.07
2018-11-20T04:10:59.408Z,3.04
2018-11-20T04:13:49.289Z,3.06
2018-11-20T04:16:31.240Z,3.06
2018-11-20T04:19:21.884Z,3.05
2018-11-20T04:22:10.481Z,3.07
2018-11-20T04:24:59.239Z,3.06
2018-11-20T04:27:52.213Z,3.07
2018-11-20T04:31:34.374Z,3.05
2018-11-20T04:34:25.442Z,3.02
2018-11-20T04:37:27.722Z,3.04
2018-11-20T04:40:17.999Z,3.03
2018-11-20T04:43:11.897Z,3.04
2018-11-20T04:46:06.613Z,3.05
2018-11-20T04:48:58.374Z,3.02
2018-11-20T04:51:51.387Z,2.95
2018-11-20T04:54:49.989Z,2.92
2018-11-20T04:57:58.094Z,2.91
2018-11-20T05:00:54.259Z,2.91
2018-11-20T05:03:50.613Z,2.91
2018-11-20T05:06:39.010Z,2.91
2018-11-20T05:09:31.201Z,2.89
2018-11-20T05:12:19.688Z,2.85
2018-11-20T05:15:12.179Z,2.91
2018-11-20T05:18:14.503Z,2.90
2018-11-20T05:21:19.657Z,2.84
2018-11-20T05:24:30.448Z,2.80
2018-11-20T05:27:15.212Z,2.83
2018-11-20T05:29:59.269Z,2.77
2018-11-20T05:32:49.247Z,2.81
2018-11-20T05:35:44.994Z,2.71
2018-11-20T05:38:27.873Z,2.74
2018-11-20T05:41:23.558Z,2.78
2018-11-20T05:44:12.218Z,2.77
2018-11-20T05:47:11.277Z,2.78
2018-11-20T05:50:10.413Z,2.79
2018-11-20T05:53:00.373Z,2.77
2018-11-20T05:55:48.393Z,2.80
2018-11-20T05:58:56.536Z,2.79
2018-11-20T06:01:49.298Z,2.83
2018-11-20T06:04:51.515Z,2.79
2018-11-20T06:07:33.542Z,2.76
2018-11-20T06:10:38.319Z,2.75
2018-11-20T06:13:34.052Z,2.76
2018-11-20T06:16:32.972Z,2.75
2018-11-20T06:19:22.130Z,2.76
2018-11-20T06:22:27.348Z,2.72
2018-11-20T06:25:32.294Z,2.73
2018-11-20T06:28:20.696Z,2.68
2018-11-20T06:31:02.717Z,2.61
2018-11-20T06:34:04.606Z,2.68
2018-11-20T06:36:46.190Z,2.65
2018-11-20T06:39:54.694Z,2.64
2018-11-20T06:42:44.666Z,2.57
2018-11-20T06:45:41.852Z,2.62
2018-11-20T06:48:34.870Z,2.56
2018-11-20T06:51:23.433Z,2.59
2018-11-20T06:54:31.896Z,2.65
2018-11-20T06:57:21.898Z,2.58
2018-11-20T07:00:06.007Z,2.55
2018-11-20T07:03:02.054Z,2.56
2018-11-20T07:05:50.711Z,2.57
2018-11-20T07:08:40.711Z,2.55
2018-11-20T07:11:39.891Z,2.62
2018-11-20T07:14:40.095Z,2.57
2018-11-20T07:17:48.169Z,2.54
2018-11-20T07:20:36.671Z,2.57
2018-11-20T07:23:25.547Z,2.52
2018-11-20T07:26:33.844Z,2.53
2018-11-20T07:29:22.604Z,2.51
2018-11-20T07:32:18.506Z,2.59
2018-11-20T07:35:08.432Z,2.53
2018-11-20T07:37:57.028Z,2.56
2018-11-20T07:40:51.489Z,2.59
2018-11-20T07:43:42.959Z,2.52
2018-11-20T07:46:38.746Z,2.49
2018-11-20T07:49:37.783Z,2.42
2018-11-20T07:52:34.130Z,2.45
2018-11-20T07:55:23.013Z,2.47
2018-11-20T07:58:19.041Z,2.43
2018-11-20T08:01:11.729Z,2.37
2018-11-20T08:04:04.567Z,2.46
2018-11-20T08:06:53.122Z,2.45
2018-11-20T08:09:43.580Z,2.44
2018-11-20T08:12:33.450Z,2.55
2018-11-20T08:15:23.521Z,2.43
2018-11-20T08:18:16.324Z,2.52
2018-11-20T08:21:04.895Z,2.46
2018-11-20T08:23:54.367Z,2.50
2018-11-20T08:26:43.237Z,2.47
2018-11-20T08:29:31.902Z,2.48
2018-11-20T08:32:20.643Z,2.52
2018-11-20T08:35:02.910Z,2.45
2018-11-20T08:37:48.995Z,2.50
2018-11-20T08:40:51.197Z,2.47
2018-11-20T08:43:46.517Z,2.48
2018-11-20T08:46:54.493Z,2.40
2018-11-20T08:50:17.728Z,2.39
2018-11-20T08:53:15.720Z,2.42
2018-11-20T08:56:02.871Z,2.43
2018-11-20T08:58:50.370Z,2.36
2018-11-20T09:01:39.092Z,2.39
2018-11-20T09:04:27.682Z,2.41
2018-11-20T09:07:06.857Z,2.48
2018-11-20T09:09:53.414Z,2.49
2018-11-20T09:13:00.642Z,2.42
2018-11-20T09:15:48.426Z,2.47
2018-11-20T09:18:36.104Z,2.43
2018-11-20T09:21:34.537Z,2.48
2018-11-20T09:24:29.225Z,2.43
2018-11-20T09:27:19.788Z,2.51
2018-11-20T09:30:27.546Z,2.50
2018-11-20T09:33:15.197Z,2.52
2018-11-20T09:35:57.387Z,2.43
2018-11-20T09:39:04.493Z,2.46
2018-11-20T09:41:52.196Z,2.45
2018-11-20T09:44:58.123Z,2.43
2018-11-20T09:48:02.432Z,2.44
2018-11-20T09:51:03.440Z,2.46
2018-11-20T09:54:01.769Z,2.44
2018-11-20T09:56:46.754Z,2.36
2018-11-20T09:59:39.225Z,2.42
2018-11-20T10:02:22.594Z,2.43
2018-11-20T10:05:17.373Z,2.43
2018-11-20T10:08:04.935Z,2.41
2018-11-20T10:11:00.605Z,2.43
2018-11-20T10:13:52.345Z,2.43
2018-11-20T10:16:41.397Z,2.49
2018-11-20T10:19:42.450Z,2.48
2018-11-20T10:22:37.112Z,2.45
2018-11-20T10:25:37.464Z,2.42
2018-11-20T10:28:44.221Z,2.53
2018-11-20T10:31:31.721Z,2.53
2018-11-20T10:34:38.933Z,2.51
2018-11-20T10:37:33.447Z,2.50
2018-11-20T10:40:22.891Z,2.52
2018-11-20T10:43:30.155Z,2.48
2018-11-20T10:46:17.980Z,2.63
2018-11-20T10:49:18.619Z,2.59
2018-11-20T10:52:09.122Z,2.69
2018-11-20T10:54:47.020Z,2.68
2018-11-20T10:57:34.791Z,2.67
2018-11-20T11:00:29.326Z,2.71
2018-11-20T11:03:16.995Z,2.72
2018-11-20T11:06:04.599Z,2.66
2018-11-20T11:09:05.076Z,2.67
2018-11-20T11:11:55.833Z,2.67
2018-11-20T11:14:55.022Z,2.62
2018-11-20T11:17:58.734Z,2.62
2018-11-20T11:20:46.207Z,2.66
2018-11-20T11:23:33.811Z,2.60
2018-11-20T11:26:40.515Z,2.62
2018-11-20T11:29:27.808Z,2.64
2018-11-20T11:32:35.277Z,2.73
2018-11-20T11:35:30.282Z,2.70
2018-11-20T11:38:27.937Z,2.73
2018-11-20T11:41:19.876Z,2.71
2018-11-20T11:44:17.462Z,2.74
2018-11-20T11:47:24.460Z,2.76
2018-11-20T11:50:12.006Z,2.74
2018-11-20T11:53:00.846Z,2.68
2018-11-20T11:55:52.588Z,2.66
2018-11-20T11:58:50.477Z,2.71
2018-11-20T12:04:54.902Z,2.77
2018-11-20T12:07:47.759Z,2.76
2018-11-20T12:10:48.741Z,2.71
2018-11-20T12:13:46.005Z,2.77
2018-11-20T12:16:34.116Z,2.69
2018-11-20T12:19:21.380Z,2.76
2018-11-20T12:22:14.078Z,2.74
2018-11-20T12:25:17.777Z,2.73
2018-11-20T12:28:16.668Z,2.78
2018-11-20T12:31:06.272Z,2.81
2018-11-20T12:34:00.012Z,2.85
2018-11-20T12:36:49.238Z,2.87
2018-11-20T12:39:49.182Z,2.85
2018-11-20T12:42:38.652Z,2.93
2018-11-20T12:45:24.404Z,2.92
2018-11-20T12:48:22.517Z,2.89
2018-11-20T12:51:19.934Z,2.94
2018-11-20T12:54:03.552Z,2.95
2018-11-20T12:56:50.806Z,2.89
2018-11-20T12:59:38.322Z,2.96
2018-11-20T13:02:40.047Z,2.94
2018-11-20T13:05:37.325Z,2.99
2018-11-20T13:08:38.052Z,2.94
2018-11-20T13:11:41.824Z,2.98
2018-11-20T13:14:39.778Z,2.98
2018-11-20T13:17:22.863Z,2.87
2018-11-20T13:20:10.647Z,2.85
2018-11-20T13:22:58.976Z,2.77
2018-11-20T13:25:51.039Z,2.79
2018-11-20T13:28:46.087Z,2.75
2018-11-20T13:31:46.738Z,2.65
2018-11-20T13:34:34.068Z,2.59
2018-11-20T13:37:28.689Z,2.56
2018-11-20T13:40:29.419Z,2.51
2018-11-20T13:43:27.031Z,2.57
2018-11-20T13:46:28.125Z,2.47
2018-11-20T13:49:22.910Z,2.42
2018-11-20T13:51:59.981Z,2.43
2018-11-20T13:54:53.685Z,2.39
2018-11-20T13:58:02.365Z,2.22
2018-11-20T14:01:00.728Z,2.12
2018-11-20T14:03:49.423Z,1.89
2018-11-20T14:06:47.459Z,1.65
2018-11-20T14:09:35.201Z,1.60
2018-11-20T14:12:42.376Z,1.36
2018-11-20T14:15:37.651Z,1.27
2018-11-20T14:18:25.102Z,1.15
2018-11-20T14:21:12.651Z,1.09
2018-11-20T14:24:10.445Z,1.07
2018-11-20T14:26:59.712Z,1.08
2018-11-20T14:29:47.281Z,0.95
2018-11-20T14:32:34.742Z,1.03
2018-11-20T14:35:26.255Z,0.96
2018-11-20T14:38:27.315Z,0.91
2018-11-20T14:41:16.116Z,0.95
2018-11-20T14:44:10.580Z,0.93
2018-11-20T14:46:57.433Z,0.97
2018-11-20T14:50:01.435Z,0.95
2018-11-20T14:52:50.340Z,0.98
2018-11-20T14:55:42.518Z,0.92
2018-11-20T14:58:19.197Z,0.91
2018-11-20T15:01:17.206Z,0.88
2018-11-20T15:04:06.347Z,0.89
2018-11-20T15:06:53.511Z,0.83
2018-11-20T15:09:48.269Z,0.81
2018-11-20T15:12:35.916Z,0.72
2018-11-20T15:15:29.880Z,0.72
2018-11-20T15:18:30.620Z,0.66
2018-11-20T15:21:16.730Z,0.70
2018-11-20T15:23:55.994Z,0.75
2018-11-20T15:26:38.416Z,0.68
2018-11-20T15:29:29.903Z,0.64
2018-11-20T15:32:26.172Z,0.67
2018-11-20T15:35:31.427Z,0.68
2018-11-20T15:38:22.936Z,0.64
2018-11-20T15:41:17.374Z,0.63
2018-11-20T15:44:04.961Z,0.67
2018-11-20T15:46:54.608Z,0.67
2018-11-20T15:49:43.433Z,0.70
2018-11-20T15:52:34.497Z,0.71
2018-11-20T15:55:23.211Z,0.76
2018-11-20T15:58:10.670Z,0.77
2018-11-20T16:01:22.963Z,0.77
2018-11-20T16:04:07.955Z,0.81
2018-11-20T16:07:01.645Z,0.81
2018-11-20T16:09:42.847Z,0.81
2018-11-20T16:12:30.229Z,0.79
2018-11-20T16:15:33.200Z,0.82
2018-11-20T16:18:21.920Z,0.84
2018-11-20T16:21:09.664Z,0.87
2018-11-20T16:23:57.239Z,0.87
2018-11-20T16:26:40.142Z,0.87
2018-11-20T16:29:34.799Z,0.91
2018-11-20T16:32:22.137Z,0.95
2018-11-20T16:35:10.889Z,0.91
2018-11-20T16:38:01.003Z,0.96
2018-11-20T16:40:55.918Z,0.93
2018-11-20T16:43:47.889Z,0.96
2018-11-20T16:46:39.453Z,0.98
2018-11-20T16:49:40.588Z,1.01
2018-11-20T16:52:32.397Z,1.03
2018-11-20T16:55:22.620Z,1.08
2018-11-20T16:58:10.323Z,1.07
2018-11-20T17:00:54.560Z,1.11
2018-11-20T17:03:34.790Z,1.08
2018-11-20T17:06:29.615Z,1.13
2018-11-20T17:09:20.336Z,1.14
2018-11-20T17:12:12.051Z,1.17
2018-11-20T17:15:01.165Z,1.23
2018-11-20T17:17:56.757Z,1.19
2018-11-20T17:20:38.546Z,1.23
2018-11-20T17:23:45.380Z,1.26
2018-11-20T17:26:32.845Z,1.25
2018-11-20T17:29:25.373Z,1.27
2018-11-20T17:32:08.728Z,1.31
2018-11-20T17:35:06.758Z,1.26
2018-11-20T17:38:04.986Z,1.26
2018-11-20T17:40:52.414Z,1.30
2018-11-20T17:43:44.137Z,1.27
2018-11-20T17:46:42.075Z,1.30
2018-11-20T17:49:40.028Z,1.29
2018-11-20T17:52:29.286Z,1.32
2018-11-20T17:55:11.622Z,1.33
2018-11-20T17:57:59.375Z,1.34
2018-11-20T18:00:47.093Z,1.33
2018-11-20T18:03:36.021Z,1.34
2018-11-20T18:06:23.566Z,1.38
2018-11-20T18:09:11.130Z,1.34
2018-11-20T18:11:52.113Z,1.34
2018-11-20T18:14:49.754Z,1.37
2018-11-20T18:17:38.569Z,1.38
2018-11-20T18:20:27.132Z,1.33
2018-11-20T18:23:19.391Z,1.33
2018-11-20T18:26:15.207Z,1.41
2018-11-20T18:29:02.724Z,1.40
2018-11-20T18:31:50.929Z,1.42
2018-11-20T18:34:44.079Z,1.36
2018-11-20T18:37:44.581Z,1.40
2018-11-20T18:40:33.531Z,1.40
2018-11-20T18:43:22.336Z,1.41
2018-11-20T18:46:15.726Z,1.43
2018-11-20T18:49:07.739Z,1.45
2018-11-20T18:52:08.809Z,1.46
2018-11-20T18:55:00.763Z,1.38
2018-11-20T18:58:05.069Z,1.39
2018-11-20T19:00:54.317Z,1.42
2018-11-20T19:03:39.863Z,1.43
2018-11-20T19:06:29.209Z,1.45
2018-11-20T19:09:21.205Z,1.41
2018-11-20T19:12:13.162Z,1.43
2018-11-20T19:14:57.578Z,1.44
2018-11-20T19:17:52.224Z,1.41
2018-11-20T19:20:33.207Z,1.41
2018-11-20T19:23:21.230Z,1.45
2018-11-20T19:26:28.436Z,1.43
2018-11-20T19:29:21.967Z,1.45
2018-11-20T19:32:19.820Z,1.45
2018-11-20T19:35:26.891Z,1.46
2018-11-20T19:38:15.122Z,1.43
2018-11-20T19:41:03.112Z,1.50
2018-11-20T19:43:50.677Z,1.59
2018-11-20T19:46:40.346Z,1.51
2018-11-20T19:49:28.513Z,1.52
2018-11-20T19:52:09.742Z,1.54
2018-11-20T19:54:53.249Z,1.55
2018-11-20T19:57:41.453Z,1.51
2018-11-20T20:00:39.998Z,1.54
2018-11-20T20:03:25.893Z,1.53
2018-11-20T20:06:26.959Z,1.48
2018-11-20T20:09:15.952Z,1.52
2018-11-20T20:12:07.424Z,1.50
2018-11-20T20:14:59.189Z,1.50
2018-11-20T20:17:46.793Z,1.49
2018-11-20T20:20:56.058Z,1.53
2018-11-20T20:23:41.194Z,1.54
2018-11-20T20:26:23.712Z,1.50
2018-11-20T20:29:24.520Z,1.48
2018-11-20T20:32:16.935Z,1.52
2018-11-20T20:34:59.986Z,1.52
2018-11-20T20:37:51.681Z,1.52
2018-11-20T20:40:39.142Z,1.54
2018-11-20T20:43:34.961Z,1.55
2018-11-20T20:46:22.335Z,1.54
2018-11-20T20:49:09.907Z,1.55
2018-11-20T20:51:58.835Z,1.55
2018-11-20T20:54:47.814Z,1.51
2018-11-20T20:57:42.812Z,1.46
2018-11-20T21:00:32.159Z,1.51
2018-11-20T21:03:27.365Z,1.58
2018-11-20T21:06:18.593Z,1.55
2018-11-20T21:09:08.192Z,1.52
2018-11-20T21:11:55.734Z,1.52
2018-11-20T21:15:02.674Z,1.54
2018-11-20T21:17:50.549Z,1.54
2018-11-20T21:20:39.212Z,1.55
2018-11-20T21:23:29.682Z,1.52
2018-11-20T21:26:24.405Z,1.51
2018-11-20T21:29:15.877Z,1.45
2018-11-20T21:32:07.889Z,1.46
2018-11-20T21:34:55.394Z,1.46
2018-11-20T21:37:47.295Z,1.45
2018-11-20T21:40:35.005Z,1.37
2018-11-20T21:43:15.601Z,1.34
2018-11-20T21:46:02.843Z,1.32
2018-11-20T21:48:54.291Z,1.28
2018-11-20T21:51:55.663Z,1.29
2018-11-20T21:55:02.979Z,1.27
2018-11-20T21:57:55.990Z,1.26
2018-11-20T22:00:50.193Z,1.28
2018-11-20T22:03:50.256Z,1.32
2018-11-20T22:06:48.946Z,1.32
2018-11-20T22:09:37.723Z,1.28
2018-11-20T22:12:38.558Z,1.29
2018-11-20T22:15:27.499Z,1.30
2018-11-20T22:18:25.689Z,1.26
2018-11-20T22:21:10.691Z,1.27
2018-11-20T22:24:08.537Z,1.35
2018-11-20T22:26:56.278Z,1.28
2018-11-20T22:29:40.020Z,1.32
2018-11-20T22:32:27.577Z,1.28
2018-11-20T22:35:22.278Z,1.29
2018-11-20T22:38:26.395Z,1.36
2018-11-20T22:41:06.486Z,1.27
2018-11-20T22:44:13.595Z,1.21
2018-11-20T22:47:01.758Z,1.38
2018-11-20T22:49:53.668Z,1.24
2018-11-20T22:52:35.447Z,1.24
2018-11-20T22:55:39.821Z,1.20
2018-11-20T22:58:20.208Z,1.19
2018-11-20T23:01:27.708Z,1.12
2018-11-20T23:04:14.271Z,1.09
2018-11-20T23:07:15.538Z,1.06
2018-11-20T23:09:46.209Z,1.06
2018-11-20T23:12:17.869Z,1.04
2018-11-20T23:14:48.115Z,1.05
2018-11-20T23:17:17.795Z,1.08
2018-11-20T23:19:47.631Z,1.05
2018-11-20T23:22:17.488Z,1.05
2018-11-20T23:24:47.348Z,1.06
2018-11-20T23:27:17.618Z,1.08
2018-11-20T23:29:47.438Z,1.10
2018-11-20T23:32:17.280Z,1.18
2018-11-20T23:34:47.232Z,1.22
2018-11-20T23:37:17.510Z,1.31
2018-11-20T23:39:47.326Z,1.33
2018-11-20T23:42:20.583Z,1.34
2018-11-20T23:44:47.461Z,1.38
2018-11-20T23:47:17.290Z,1.43
2018-11-20T23:49:46.949Z,1.49
2018-11-20T23:52:16.864Z,1.52
2018-11-20T23:54:46.949Z,1.52
2018-11-20T23:57:17.350Z,1.56
2018-11-20T23:59:47.153Z,1.58
